Time;durP1;ratioP1;P1;durP2;ratioP2;P2;SDS_P1;SDS_P2;PMS_P1;PMS_P2;Temp;Humidity;BMP_temperature;BMP_pressure;BME280_temperature;BME280_humidity;BME280_pressure;Samples;Min_cycle;Max_cycle;Signal;HPM_P1;HPM_P2
2022/09/08 00:02:25;;;;;;;7.88;3.28;;;16.00;99.90;;;;;;5128797;28;20682;-70
2022/09/08 00:04:52;;;;;;;4.53;2.60;;;16.00;99.90;;;;;;5111253;28;20200;-70
2022/09/08 00:07:21;;;;;;;3.42;2.90;;;15.70;99.90;;;;;;5104568;28;20204;-69
2022/09/08 00:09:48;;;;;;;3.42;2.85;;;15.40;99.90;;;;;;5126009;27;20218;-69
2022/09/08 00:12:15;;;;;;;3.17;2.88;;;15.40;99.90;;;;;;5117054;27;20213;-70
2022/09/08 00:14:42;;;;;;;4.57;2.88;;;15.60;99.90;;;;;;5132755;27;20220;-69
2022/09/08 00:17:09;;;;;;;4.30;3.00;;;15.60;99.90;;;;;;5120160;27;20197;-69
2022/09/08 00:19:36;;;;;;;5.03;3.13;;;15.80;99.90;;;;;;5108529;27;20205;-69
2022/09/08 00:22:03;;;;;;;4.38;2.92;;;16.00;99.90;;;;;;5103774;27;20201;-70
2022/09/08 00:24:31;;;;;;;4.10;2.80;;;16.10;99.90;;;;;;5103413;27;20198;-70
2022/09/08 00:26:57;;;;;;;3.35;2.90;;;15.60;99.90;;;;;;5103924;27;20204;-69
2022/09/08 00:29:24;;;;;;;3.33;3.00;;;15.30;99.90;;;;;;5130316;27;20192;-70
2022/09/08 00:31:51;;;;;;;4.28;3.47;;;15.30;99.90;;;;;;5123621;27;20784;-69
2022/09/08 00:34:18;;;;;;;3.72;3.25;;;15.20;99.90;;;;;;5116763;27;20216;-69
2022/09/08 00:36:45;;;;;;;4.63;3.30;;;15.10;99.90;;;;;;5114301;27;20221;-70
2022/09/08 00:39:11;;;;;;;3.90;2.85;;;14.90;99.90;;;;;;5103787;27;20572;-69
2022/09/08 00:41:39;;;;;;;6.07;3.70;;;15.10;99.90;;;;;;5135572;27;20208;-70
2022/09/08 00:44:38;;;;;;;6.43;4.13;;;15.30;99.90;;;;;;5119411;27;20193;-70
2022/09/08 00:47:12;;;;;;;3.63;3.33;;;15.40;99.90;;;;;;5104870;27;20284;-70
2022/09/08 00:49:39;;;;;;;5.18;3.50;;;15.50;99.90;;;;;;5128591;27;20647;-70
2022/09/08 00:52:06;;;;;;;4.88;3.83;;;15.60;99.90;;;;;;5109081;28;20229;-69
2022/09/08 00:54:33;;;;;;;4.57;3.83;;;15.60;99.90;;;;;;5110784;28;20236;-70
2022/09/08 00:57:02;;;;;;;5.80;4.57;;;15.70;99.90;;;;;;5131739;27;20563;-69
2022/09/08 00:59:29;;;;;;;7.10;4.60;;;15.60;99.90;;;;;;5116992;27;20204;-70
2022/09/08 01:01:56;;;;;;;7.07;4.60;;;15.70;99.90;;;;;;5122680;27;20205;-70
2022/09/08 01:04:23;;;;;;;6.40;4.55;;;15.60;99.90;;;;;;5115391;27;20196;-71
2022/09/08 01:12:44;;;;;;;6.40;5.13;;;15.60;99.90;;;;;;5105610;27;20223;-69
2022/09/08 01:15:15;;;;;;;7.57;5.32;;;15.50;99.90;;;;;;5134186;27;20219;-70
2022/09/08 01:17:42;;;;;;;6.88;5.38;;;15.50;99.90;;;;;;5108019;27;20208;-70
2022/09/08 01:20:11;;;;;;;8.38;5.22;;;15.60;99.90;;;;;;5114405;28;20197;-70
2022/09/08 01:22:58;;;;;;;7.10;5.45;;;15.60;99.90;;;;;;5116562;27;20571;-70
2022/09/08 01:26:01;;;;;;;7.80;5.07;;;15.60;99.90;;;;;;5116880;27;20197;-70
2022/09/08 01:28:33;;;;;;;7.55;5.65;;;15.50;99.90;;;;;;5118516;27;20216;-70
2022/09/08 01:31:01;;;;;;;8.25;5.40;;;15.20;99.90;;;;;;5116795;27;20206;-69
2022/09/08 01:33:28;;;;;;;6.70;5.38;;;15.20;99.90;;;;;;5126405;27;20600;-70
2022/09/08 01:35:55;;;;;;;6.00;5.40;;;15.30;99.90;;;;;;5124771;27;20556;-70
2022/09/08 01:38:22;;;;;;;7.90;5.72;;;15.30;99.90;;;;;;5117225;27;20199;-70
2022/09/08 01:40:49;;;;;;;6.40;5.78;;;15.40;99.90;;;;;;5107893;27;20223;-70
2022/09/08 01:43:16;;;;;;;7.07;6.30;;;15.40;99.90;;;;;;5111527;27;20650;-69
2022/09/08 01:45:44;;;;;;;6.50;5.15;;;15.40;99.90;;;;;;5120617;27;20201;-69
2022/09/08 01:48:10;;;;;;;9.27;5.97;;;15.10;99.90;;;;;;5110357;27;20204;-70
2022/09/08 01:50:37;;;;;;;8.00;5.50;;;15.00;99.90;;;;;;5131460;27;20215;-70
2022/09/08 01:53:04;;;;;;;9.45;6.70;;;15.00;99.90;;;;;;5103191;27;20204;-69
2022/09/08 01:55:31;;;;;;;9.38;6.10;;;15.10;99.90;;;;;;5125173;27;20231;-69
2022/09/08 01:57:57;;;;;;;8.13;6.13;;;15.00;99.90;;;;;;5122388;27;20196;-69
2022/09/08 02:00:24;;;;;;;8.15;6.30;;;14.90;99.90;;;;;;5134350;27;20196;-69
2022/09/08 02:02:52;;;;;;;9.52;6.45;;;15.00;99.90;;;;;;5111752;27;20203;-69
2022/09/08 02:05:19;;;;;;;8.00;6.45;;;15.00;99.90;;;;;;5113840;27;20271;-70
2022/09/08 02:07:46;;;;;;;10.85;6.93;;;15.00;99.90;;;;;;5133929;27;20214;-70
2022/09/08 02:10:13;;;;;;;7.95;7.15;;;15.10;99.90;;;;;;5120666;27;20233;-70
2022/09/08 02:12:40;;;;;;;10.57;8.10;;;15.30;99.90;;;;;;5105964;28;20226;-70
2022/09/08 02:15:08;;;;;;;13.18;7.65;;;15.40;99.90;;;;;;5128291;27;20224;-70
2022/09/08 02:17:35;;;;;;;8.60;7.00;;;15.40;99.90;;;;;;5108754;27;20192;-70
2022/09/08 02:20:05;;;;;;;11.30;7.20;;;15.20;99.90;;;;;;5130909;27;20204;-70
2022/09/08 02:22:32;;;;;;;8.27;6.82;;;15.00;99.90;;;;;;5110761;27;20208;-69
2022/09/08 02:24:59;;;;;;;9.77;7.20;;;14.80;99.90;;;;;;5112554;28;20201;-69
2022/09/08 02:27:26;;;;;;;8.80;7.35;;;14.80;99.90;;;;;;5112094;27;20199;-70
2022/09/08 02:29:52;;;;;;;9.75;7.60;;;14.80;99.90;;;;;;5132681;27;20249;-70
2022/09/08 02:32:19;;;;;;;10.52;8.00;;;14.90;99.90;;;;;;5108823;27;20196;-70
2022/09/08 02:34:46;;;;;;;10.73;9.18;;;15.10;99.90;;;;;;5129155;27;20588;-70
2022/09/08 02:37:14;;;;;;;13.88;9.23;;;15.10;99.90;;;;;;5116289;27;20222;-70
2022/09/08 02:39:41;;;;;;;12.30;8.45;;;15.10;99.90;;;;;;5123106;27;20192;-70
2022/09/08 02:42:08;;;;;;;13.65;8.98;;;15.10;99.90;;;;;;5110333;27;20624;-70
2022/09/08 02:44:35;;;;;;;14.10;9.30;;;15.20;99.90;;;;;;5130262;27;20564;-70
2022/09/08 02:47:02;;;;;;;10.82;9.00;;;15.10;99.90;;;;;;5098835;27;20671;-70
2022/09/08 02:49:30;;;;;;;19.00;6.82;;;14.60;99.90;;;;;;5112523;27;20647;-69
2022/09/08 02:51:56;;;;;;;8.77;7.45;;;14.40;99.90;;;;;;5097679;27;20629;-70
2022/09/08 02:54:25;;;;;;;9.88;7.25;;;14.40;99.90;;;;;;5102388;27;20236;-70
2022/09/08 02:56:52;;;;;;;16.65;11.30;;;14.60;99.90;;;;;;5110878;27;20201;-69
2022/09/08 02:59:19;;;;;;;14.70;11.48;;;14.50;99.90;;;;;;5110854;27;20192;-70
2022/09/08 03:01:46;;;;;;;16.95;10.88;;;14.40;99.90;;;;;;5103156;27;20662;-69
2022/09/08 03:04:13;;;;;;;10.57;8.82;;;14.60;99.90;;;;;;5121332;27;20279;-70
2022/09/08 03:06:40;;;;;;;13.30;10.27;;;14.80;99.90;;;;;;5123182;27;20200;-70
2022/09/08 03:09:08;;;;;;;13.45;10.05;;;15.00;99.90;;;;;;5133122;27;20200;-70
2022/09/08 03:11:36;;;;;;;15.25;10.80;;;15.10;99.90;;;;;;5127599;27;20643;-70
2022/09/08 03:14:03;;;;;;;16.38;11.40;;;14.70;99.90;;;;;;5132959;27;20204;-70
2022/09/08 03:16:30;;;;;;;18.48;12.20;;;14.70;99.90;;;;;;5125594;27;20204;-70
2022/09/08 03:18:57;;;;;;;21.27;14.07;;;14.70;99.90;;;;;;5120488;27;20204;-70
2022/09/08 03:21:24;;;;;;;30.75;14.93;;;14.70;99.90;;;;;;5100049;28;20449;-69
2022/09/08 03:23:51;;;;;;;27.13;14.98;;;14.70;99.90;;;;;;5130476;27;20199;-70
2022/09/08 03:26:20;;;;;;;19.98;14.43;;;14.70;99.90;;;;;;5114768;27;20216;-69
2022/09/08 03:28:48;;;;;;;19.55;13.07;;;14.70;99.90;;;;;;5112709;28;20197;-69
2022/09/08 03:31:18;;;;;;;19.85;13.00;;;14.80;99.90;;;;;;5107348;28;20205;-70
2022/09/08 03:33:46;;;;;;;21.40;11.93;;;15.00;99.90;;;;;;5126842;28;20202;-70
2022/09/08 03:36:15;;;;;;;15.85;12.35;;;15.00;99.90;;;;;;5121692;28;20599;-70
2022/09/08 03:38:42;;;;;;;38.08;14.70;;;15.00;99.90;;;;;;5116561;28;20208;-70
2022/09/08 03:41:12;;;;;;;22.60;14.18;;;15.00;99.90;;;;;;5110611;28;20197;-69
2022/09/08 03:43:43;;;;;;;24.23;13.65;;;15.00;99.90;;;;;;5119611;27;20223;-70
2022/09/08 03:46:11;;;;;;;49.85;15.07;;;15.00;99.90;;;;;;5118326;27;20566;-69
2022/09/08 03:48:38;;;;;;;19.65;15.18;;;15.00;99.90;;;;;;5115388;27;20200;-70
2022/09/08 03:51:09;;;;;;;20.73;15.80;;;15.10;99.90;;;;;;5124890;27;20324;-70
2022/09/08 03:53:36;;;;;;;19.77;14.63;;;15.20;99.90;;;;;;5106797;27;20219;-70
2022/09/08 03:56:06;;;;;;;21.40;14.82;;;15.20;99.90;;;;;;5135726;27;20220;-70
2022/09/08 03:58:33;;;;;;;20.02;13.55;;;15.30;99.90;;;;;;5131724;27;20196;-70
2022/09/08 04:01:00;;;;;;;19.48;14.38;;;15.30;99.90;;;;;;5125497;27;20630;-70
2022/09/08 04:03:28;;;;;;;22.55;14.85;;;15.20;99.90;;;;;;5136286;27;20200;-70
2022/09/08 04:05:55;;;;;;;20.40;15.38;;;15.40;99.90;;;;;;5133385;27;20204;-70
2022/09/08 04:08:22;;;;;;;23.35;16.02;;;15.30;99.90;;;;;;5136098;27;20196;-69
2022/09/08 04:10:48;;;;;;;26.30;15.75;;;15.30;99.90;;;;;;5108804;27;20603;-69
2022/09/08 04:13:15;;;;;;;20.63;15.25;;;15.20;99.90;;;;;;5130240;27;20196;-70
2022/09/08 04:15:42;;;;;;;20.70;15.20;;;15.10;99.90;;;;;;5116854;27;20224;-69
2022/09/08 04:18:09;;;;;;;26.80;15.57;;;14.90;99.90;;;;;;5116586;27;20199;-69
2022/09/08 04:20:38;;;;;;;43.88;17.90;;;14.90;99.90;;;;;;5115942;27;20231;-69
2022/09/08 04:23:05;;;;;;;20.73;16.38;;;14.90;99.90;;;;;;5109935;27;20200;-69
2022/09/08 04:25:31;;;;;;;21.25;16.70;;;15.00;99.90;;;;;;5110773;27;20205;-69
2022/09/08 04:27:58;;;;;;;29.40;17.60;;;15.20;99.90;;;;;;5107906;27;20223;-69
2022/09/08 04:30:26;;;;;;;28.00;17.95;;;15.40;99.90;;;;;;5116240;27;20201;-69
2022/09/08 04:32:53;;;;;;;36.92;17.80;;;15.40;99.90;;;;;;5120499;27;20201;-69
2022/09/08 04:35:20;;;;;;;32.05;18.55;;;15.40;99.90;;;;;;5130548;27;20213;-69
2022/09/08 04:37:48;;;;;;;42.67;17.50;;;15.40;99.90;;;;;;5119700;27;20208;-69
2022/09/08 04:40:15;;;;;;;35.45;19.48;;;15.30;99.90;;;;;;5123130;28;20204;-69
2022/09/08 04:42:42;;;;;;;31.02;18.60;;;15.40;99.90;;;;;;5122845;28;20655;-69
2022/09/08 04:45:09;;;;;;;35.80;19.27;;;15.50;99.90;;;;;;5131869;28;20572;-69
2022/09/08 04:47:36;;;;;;;36.45;18.23;;;15.40;99.90;;;;;;5123981;28;20205;-69
2022/09/08 04:50:03;;;;;;;26.70;18.17;;;15.30;99.90;;;;;;5130567;28;20693;-69
2022/09/08 04:52:30;;;;;;;35.03;18.73;;;15.40;99.90;;;;;;5125961;27;20690;-69
2022/09/08 04:54:59;;;;;;;23.50;17.42;;;15.50;99.90;;;;;;5105556;28;20607;-69
2022/09/08 04:57:26;;;;;;;22.30;17.45;;;15.50;99.90;;;;;;5119434;28;20181;-69
2022/09/08 04:59:54;;;;;;;23.13;17.88;;;15.50;99.90;;;;;;5105519;28;20628;-69
2022/09/08 05:02:20;;;;;;;23.25;17.83;;;15.60;99.90;;;;;;5114691;28;20204;-69
2022/09/08 05:04:47;;;;;;;24.48;18.48;;;15.60;99.90;;;;;;5132117;28;20200;-69
2022/09/08 05:07:14;;;;;;;39.67;19.13;;;15.60;99.90;;;;;;5098601;28;20396;-69
2022/09/08 05:09:43;;;;;;;24.83;18.20;;;15.50;99.90;;;;;;5120294;28;20200;-69
2022/09/08 05:12:11;;;;;;;24.17;18.05;;;15.60;99.90;;;;;;5120874;27;20623;-69
2022/09/08 05:14:38;;;;;;;22.58;17.27;;;15.60;99.90;;;;;;5118322;28;20201;-69
2022/09/08 05:17:04;;;;;;;24.23;17.83;;;15.60;99.90;;;;;;5114357;28;20288;-69
2022/09/08 05:19:31;;;;;;;23.27;17.20;;;15.60;99.90;;;;;;5105676;28;20198;-69
2022/09/08 05:21:58;;;;;;;24.88;18.52;;;15.60;99.90;;;;;;5122356;28;20245;-72
2022/09/08 05:24:25;;;;;;;24.38;18.50;;;15.60;99.90;;;;;;5118297;28;20295;-72
2022/09/08 05:26:52;;;;;;;24.85;18.35;;;15.70;99.90;;;;;;5133773;28;20208;-72
2022/09/08 05:29:22;;;;;;;23.02;18.20;;;15.90;99.90;;;;;;5107111;28;20480;-72
2022/09/08 05:31:49;;;;;;;20.35;16.85;;;15.90;99.90;;;;;;5117436;28;20201;-73
2022/09/08 05:34:16;;;;;;;22.40;17.33;;;15.90;99.90;;;;;;5125454;28;20192;-72
2022/09/08 05:36:43;;;;;;;23.65;17.65;;;16.00;99.90;;;;;;5075283;28;1082556;-72
2022/09/08 05:39:10;;;;;;;26.85;19.92;;;16.00;99.90;;;;;;5114586;27;20204;-72
2022/09/08 05:41:37;;;;;;;30.52;20.15;;;16.00;99.90;;;;;;5110135;27;20204;-69
2022/09/08 05:44:05;;;;;;;25.58;19.42;;;16.00;99.90;;;;;;5134521;27;20232;-69
2022/09/08 05:46:33;;;;;;;24.60;20.27;;;16.00;99.90;;;;;;5115235;27;20452;-69
2022/09/08 05:49:01;;;;;;;24.40;19.33;;;16.00;99.90;;;;;;5114036;28;20207;-69
2022/09/08 05:51:30;;;;;;;26.42;20.92;;;16.10;99.90;;;;;;5103107;27;20586;-69
2022/09/08 05:53:59;;;;;;;27.17;20.70;;;16.10;99.90;;;;;;5099061;28;20697;-69
2022/09/08 05:56:26;;;;;;;25.52;20.92;;;16.10;99.90;;;;;;5112498;27;20213;-69
2022/09/08 05:58:54;;;;;;;29.27;23.05;;;16.20;99.90;;;;;;5113252;27;20577;-69
2022/09/08 06:01:21;;;;;;;29.67;21.40;;;16.20;99.90;;;;;;5127991;27;20205;-69
2022/09/08 06:03:52;;;;;;;32.90;21.63;;;16.20;99.90;;;;;;5107615;27;20538;-69
2022/09/08 06:06:20;;;;;;;32.58;24.40;;;16.20;99.90;;;;;;5105543;27;20208;-69
2022/09/08 06:08:48;;;;;;;41.40;23.52;;;16.20;99.90;;;;;;5117427;27;20228;-69
2022/09/08 06:11:14;;;;;;;35.58;24.02;;;16.10;99.90;;;;;;5112761;27;20235;-69
2022/09/08 06:13:41;;;;;;;29.95;22.13;;;16.10;99.90;;;;;;5103416;27;20197;-70
2022/09/08 06:16:10;;;;;;;30.83;22.33;;;16.20;99.90;;;;;;5112627;27;20741;-70
2022/09/08 06:18:38;;;;;;;29.67;22.38;;;16.30;99.90;;;;;;5103502;27;20643;-70
2022/09/08 06:21:08;;;;;;;31.05;23.80;;;16.20;99.90;;;;;;5113803;28;20209;-70
2022/09/08 06:23:35;;;;;;;29.27;21.75;;;16.10;99.90;;;;;;5126405;27;20396;-70
2022/09/08 06:26:28;;;;;;;31.00;23.60;;;16.20;99.90;;;;;;5114005;28;20849;-70
2022/09/08 06:29:00;;;;;;;28.48;21.20;;;16.30;99.90;;;;;;5108385;28;20205;-70
2022/09/08 06:31:32;;;;;;;30.20;21.90;;;16.40;99.90;;;;;;5107285;27;20567;-70
2022/09/08 06:34:02;;;;;;;29.17;22.83;;;16.40;99.90;;;;;;5114167;27;20189;-70
2022/09/08 06:36:37;;;;;;;27.33;20.77;;;16.50;99.90;;;;;;5101660;27;20222;-70
2022/09/08 06:39:11;;;;;;;31.55;23.05;;;16.40;99.90;;;;;;5114175;27;20204;-70
2022/09/08 06:41:45;;;;;;;31.65;22.33;;;16.50;99.90;;;;;;5098800;28;20284;-70
2022/09/08 06:44:16;;;;;;;31.45;23.42;;;16.50;99.90;;;;;;5108667;28;20216;-70
2022/09/08 06:46:47;;;;;;;29.40;21.65;;;16.40;99.90;;;;;;5104240;27;20208;-70
2022/09/08 06:49:14;;;;;;;30.27;23.25;;;16.60;99.90;;;;;;5118588;27;20193;-69
2022/09/08 06:51:51;;;;;;;33.42;24.13;;;16.60;99.90;;;;;;5126178;27;20197;-70
2022/09/08 06:54:38;;;;;;;31.48;22.60;;;16.60;99.90;;;;;;5128452;27;20199;-70
2022/09/08 06:57:18;;;;;;;29.13;22.27;;;16.60;99.90;;;;;;5110618;27;20677;-70
2022/09/08 06:59:54;;;;;;;34.78;22.15;;;16.70;99.90;;;;;;5076163;28;20201;-70
2022/09/08 07:02:38;;;;;;;33.88;22.88;;;16.70;99.90;;;;;;5102738;27;20205;-70
2022/09/08 07:05:17;;;;;;;30.85;22.20;;;16.70;99.90;;;;;;5127567;27;20196;-70
2022/09/08 07:07:51;;;;;;;34.63;24.83;;;16.70;99.90;;;;;;5102909;28;20197;-70
2022/09/08 07:10:24;;;;;;;32.28;25.00;;;16.70;99.90;;;;;;5109634;27;20689;-70
2022/09/08 07:12:56;;;;;;;30.05;23.02;;;16.80;99.90;;;;;;5122017;27;20239;-70
2022/09/08 07:15:34;;;;;;;29.67;23.65;;;16.90;99.90;;;;;;5121094;27;20220;-70
2022/09/08 07:18:12;;;;;;;30.45;21.75;;;17.00;99.90;;;;;;5116973;27;20665;-70
2022/09/08 07:20:39;;;;;;;27.05;21.02;;;17.00;99.90;;;;;;5111751;28;20196;-70
2022/09/08 07:23:12;;;;;;;31.77;20.92;;;17.10;99.90;;;;;;5116219;28;20203;-70
2022/09/08 07:25:43;;;;;;;28.55;20.15;;;17.10;99.90;;;;;;5111072;28;20201;-70
2022/09/08 07:28:12;;;;;;;28.13;20.60;;;17.00;99.90;;;;;;5112991;28;20287;-70
2022/09/08 07:30:40;;;;;;;23.73;19.45;;;17.20;99.90;;;;;;5094049;28;20252;-70
2022/09/08 07:33:15;;;;;;;25.23;21.20;;;17.20;99.90;;;;;;5118765;28;20650;-70
2022/09/08 07:36:10;;;;;;;22.73;18.58;;;17.20;99.90;;;;;;5108925;28;20229;-70
2022/09/08 07:38:46;;;;;;;25.65;18.73;;;17.20;99.90;;;;;;5108066;28;20197;-70
2022/09/08 07:41:18;;;;;;;26.65;19.90;;;17.30;99.90;;;;;;5100026;28;20644;-70
2022/09/08 07:43:45;;;;;;;28.00;20.63;;;17.30;99.90;;;;;;5098875;28;20223;-70
2022/09/08 07:46:37;;;;;;;26.55;20.13;;;17.40;99.90;;;;;;5101043;28;20233;-70
2022/09/08 07:49:11;;;;;;;25.13;20.00;;;17.50;99.90;;;;;;5100839;28;20201;-70
2022/09/08 07:51:47;;;;;;;35.33;19.75;;;17.60;99.90;;;;;;5097623;28;20209;-70
2022/09/08 07:54:38;;;;;;;27.27;20.05;;;17.60;99.90;;;;;;5102997;28;20200;-70
2022/09/08 07:57:13;;;;;;;27.02;18.27;;;17.80;99.90;;;;;;5091089;28;20225;-70
2022/09/08 07:59:44;;;;;;;27.38;18.05;;;17.70;99.90;;;;;;5102070;28;20220;-70
2022/09/08 08:02:35;;;;;;;25.83;18.55;;;17.80;99.90;;;;;;5094901;28;20212;-70
2022/09/08 08:05:16;;;;;;;22.02;17.30;;;17.80;99.90;;;;;;5102715;28;20201;-70
2022/09/08 08:07:50;;;;;;;23.45;17.88;;;17.90;99.90;;;;;;5107744;28;20196;-70
2022/09/08 08:10:26;;;;;;;22.08;17.00;;;18.10;99.90;;;;;;5102962;28;20197;-70
2022/09/08 08:13:01;;;;;;;23.23;16.50;;;18.20;99.90;;;;;;5100908;28;20197;-70
2022/09/08 08:15:37;;;;;;;25.13;17.58;;;18.20;99.90;;;;;;5102976;28;20197;-70
2022/09/08 08:18:11;;;;;;;23.10;17.48;;;18.30;99.90;;;;;;5100519;28;20509;-70
2022/09/08 08:20:50;;;;;;;21.40;16.27;;;18.30;99.90;;;;;;5096967;28;20282;-70
2022/09/08 08:23:38;;;;;;;21.38;15.90;;;18.40;99.90;;;;;;5094339;28;20273;-70
2022/09/08 08:26:19;;;;;;;19.50;14.68;;;18.40;99.90;;;;;;5104430;28;20193;-70
2022/09/08 08:28:46;;;;;;;18.60;14.75;;;18.50;99.90;;;;;;5110076;28;20200;-70
2022/09/08 08:31:30;;;;;;;20.25;14.13;;;18.50;99.90;;;;;;5112825;28;20201;-70
2022/09/08 08:34:03;;;;;;;18.58;13.13;;;18.60;99.90;;;;;;5109162;28;20553;-70
2022/09/08 08:36:36;;;;;;;16.90;13.15;;;18.50;99.90;;;;;;5110905;28;20232;-70
2022/09/08 08:39:13;;;;;;;19.23;13.00;;;18.70;99.90;;;;;;5107322;28;20658;-70
2022/09/08 08:41:56;;;;;;;15.23;12.10;;;18.60;99.90;;;;;;5114507;28;20858;-70
2022/09/08 08:44:40;;;;;;;12.38;9.50;;;18.70;99.90;;;;;;5114780;28;20212;-70
2022/09/08 08:47:26;;;;;;;12.45;9.25;;;18.70;99.90;;;;;;5095232;28;20208;-70
2022/09/08 08:50:36;;;;;;;13.23;8.82;;;18.80;99.90;;;;;;5094298;28;20212;-70
2022/09/08 08:53:26;;;;;;;10.20;8.32;;;18.90;99.90;;;;;;5115110;28;20240;-70
2022/09/08 08:56:01;;;;;;;9.95;7.72;;;18.80;99.90;;;;;;5107427;28;20221;-70
2022/09/08 08:58:55;;;;;;;9.45;7.68;;;19.00;99.90;;;;;;5115244;28;20680;-70
2022/09/08 09:01:52;;;;;;;8.55;6.80;;;18.90;99.90;;;;;;5107005;28;20641;-70
2022/09/08 09:04:39;;;;;;;8.45;7.18;;;18.90;99.90;;;;;;5094368;28;20663;-70
2022/09/08 09:07:30;;;;;;;10.40;7.68;;;19.00;99.90;;;;;;5094584;28;20205;-70
2022/09/08 09:10:24;;;;;;;7.38;6.45;;;19.00;99.90;;;;;;5102372;28;20211;-70
2022/09/08 09:13:23;;;;;;;7.10;6.00;;;19.00;99.90;;;;;;5113126;28;20584;-70
2022/09/08 09:16:15;;;;;;;7.15;5.65;;;19.10;99.90;;;;;;5103354;28;20659;-70
2022/09/08 09:19:20;;;;;;;7.05;5.53;;;19.10;99.90;;;;;;5093709;28;20198;-70
2022/09/08 09:21:52;;;;;;;10.80;5.80;;;19.20;99.90;;;;;;5012152;28;20211;-69
2022/09/08 09:24:43;;;;;;;6.95;5.43;;;19.10;99.90;;;;;;5082970;28;20209;-72
2022/09/08 09:27:26;;;;;;;6.45;5.85;;;19.10;99.90;;;;;;5089201;28;20674;-72
2022/09/08 09:30:06;;;;;;;6.35;5.55;;;19.00;99.90;;;;;;5093527;28;20209;-72
2022/09/08 09:33:07;;;;;;;6.13;5.53;;;19.10;99.90;;;;;;5109324;28;20212;-73
2022/09/08 09:35:52;;;;;;;5.47;4.97;;;19.10;99.90;;;;;;5114526;28;20231;-72
2022/09/08 09:39:10;;;;;;;5.55;4.65;;;19.00;99.90;;;;;;5113762;28;20272;-71
2022/09/08 09:41:55;;;;;;;7.85;4.60;;;19.00;99.90;;;;;;5091980;28;20220;-72
2022/09/08 09:44:39;;;;;;;7.60;4.95;;;18.90;99.90;;;;;;5114241;28;20197;-72
2022/09/08 09:47:34;;;;;;;5.80;4.40;;;18.90;99.90;;;;;;5114687;27;20642;-72
2022/09/08 09:50:43;;;;;;;7.03;4.30;;;18.90;99.90;;;;;;5110155;27;20208;-72
2022/09/08 09:53:25;;;;;;;4.20;3.90;;;18.90;99.90;;;;;;5083982;28;20201;-71
2022/09/08 09:56:40;;;;;;;3.88;3.58;;;18.80;99.90;;;;;;5093515;28;20228;-72
2022/09/08 09:59:50;;;;;;;6.78;3.72;;;18.80;99.90;;;;;;5093787;28;20213;-72
2022/09/08 10:02:46;;;;;;;3.63;3.28;;;18.80;99.90;;;;;;5011397;28;20677;-72
2022/09/08 10:05:37;;;;;;;5.88;4.53;;;18.80;99.90;;;;;;5069532;28;20244;-72
2022/09/08 10:08:37;;;;;;;6.85;4.32;;;18.70;99.90;;;;;;5112949;28;20197;-72
2022/09/08 10:11:28;;;;;;;4.90;3.90;;;18.80;99.90;;;;;;5095384;28;20579;-71
2022/09/08 10:14:30;;;;;;;4.25;3.88;;;18.70;99.90;;;;;;5113928;28;20275;-72
2022/09/08 10:17:22;;;;;;;4.60;4.20;;;18.70;99.90;;;;;;5112143;28;20251;-72
2022/09/08 10:20:37;;;;;;;5.40;4.90;;;18.60;99.90;;;;;;5113679;28;20605;-72
2022/09/08 10:23:45;;;;;;;7.65;4.43;;;18.60;99.90;;;;;;5064601;28;20200;-73
2022/09/08 10:26:38;;;;;;;4.22;3.83;;;18.50;99.90;;;;;;5113050;28;20197;-72
2022/09/08 10:29:20;;;;;;;4.97;3.95;;;18.50;99.90;;;;;;5107555;28;20197;-73
2022/09/08 10:32:20;;;;;;;3.72;3.40;;;18.40;99.90;;;;;;5104235;28;20201;-73
2022/09/08 10:35:34;;;;;;;4.00;3.53;;;18.40;99.90;;;;;;5093769;28;20498;-72
2022/09/08 10:38:22;;;;;;;3.58;3.15;;;18.30;99.90;;;;;;5092052;28;20601;-73
2022/09/08 10:41:17;;;;;;;4.55;3.60;;;18.30;99.90;;;;;;5053714;27;20202;-73
2022/09/08 10:44:13;;;;;;;5.55;3.55;;;18.30;99.90;;;;;;5111134;28;20208;-73
2022/09/08 10:47:09;;;;;;;5.25;3.83;;;18.30;99.90;;;;;;5102884;28;20197;-73
2022/09/08 10:50:13;;;;;;;4.28;3.70;;;18.30;99.90;;;;;;5092836;28;20205;-73
2022/09/08 10:52:50;;;;;;;3.88;3.47;;;18.30;99.90;;;;;;5092010;28;20205;-73
2022/09/08 10:55:44;;;;;;;3.33;3.08;;;18.40;99.90;;;;;;5092238;28;20236;-73
2022/09/08 10:59:02;;;;;;;4.13;3.60;;;18.30;99.90;;;;;;5076380;28;20228;-73
2022/09/08 11:02:05;;;;;;;3.67;3.38;;;18.30;99.90;;;;;;5090487;27;20653;-73
2022/09/08 11:04:58;;;;;;;3.80;3.50;;;18.20;99.90;;;;;;5103585;28;20266;-73
2022/09/08 11:07:54;;;;;;;4.03;3.28;;;18.20;99.90;;;;;;5091616;28;20205;-74
2022/09/08 11:10:30;;;;;;;4.53;3.65;;;18.20;99.90;;;;;;5091887;28;20648;-74
2022/09/08 11:13:12;;;;;;;3.50;3.20;;;18.40;99.90;;;;;;5092122;28;20226;-73
2022/09/08 11:16:15;;;;;;;5.72;3.60;;;18.30;99.90;;;;;;5092249;28;20206;-73
2022/09/08 11:18:56;;;;;;;4.40;3.67;;;18.30;99.90;;;;;;5089413;28;20645;-74
2022/09/08 11:21:26;;;;;;;4.43;3.95;;;18.10;99.90;;;;;;5104691;28;20573;-75
2022/09/08 11:24:08;;;;;;;4.65;4.25;;;18.20;99.90;;;;;;5112566;28;20257;-75
2022/09/08 11:26:53;;;;;;;5.68;4.22;;;18.20;99.90;;;;;;5112255;28;20193;-74
2022/09/08 11:29:20;;;;;;;6.28;4.60;;;18.20;99.90;;;;;;5112644;28;20208;-74
2022/09/08 11:31:57;;;;;;;6.35;4.93;;;18.30;99.90;;;;;;5111602;28;20570;-74
2022/09/08 11:34:44;;;;;;;5.30;4.30;;;18.20;99.90;;;;;;5112637;28;20642;-74
2022/09/08 11:37:53;;;;;;;6.20;4.72;;;18.20;99.90;;;;;;5105801;28;20224;-73
2022/09/08 11:40:40;;;;;;;4.45;4.03;;;18.20;99.90;;;;;;5102362;28;20284;-74
2022/09/08 11:43:35;;;;;;;8.18;4.70;;;18.10;99.90;;;;;;5091707;28;20228;-74
2022/09/08 11:46:31;;;;;;;4.40;4.00;;;18.10;99.90;;;;;;5092405;28;20573;-73
2022/09/08 11:49:13;;;;;;;5.25;3.80;;;18.00;99.90;;;;;;5089792;28;20194;-74
2022/09/08 11:51:54;;;;;;;4.85;4.10;;;17.90;99.90;;;;;;5092032;28;20678;-74
2022/09/08 11:54:50;;;;;;;5.53;4.38;;;18.00;99.90;;;;;;5092497;28;20660;-74
2022/09/08 11:57:32;;;;;;;5.80;4.47;;;18.10;99.90;;;;;;5115647;28;20229;-73
2022/09/08 12:00:19;;;;;;;4.57;3.92;;;18.20;99.90;;;;;;5104814;28;20192;-74
2022/09/08 12:03:13;;;;;;;5.10;3.90;;;18.20;99.90;;;;;;5095745;28;20210;-74
2022/09/08 12:05:57;;;;;;;3.97;3.65;;;18.20;99.90;;;;;;5086409;28;20211;-73
2022/09/08 12:08:45;;;;;;;5.32;4.25;;;18.10;99.90;;;;;;5095521;28;20209;-73
2022/09/08 12:11:21;;;;;;;5.30;4.30;;;18.10;99.90;;;;;;5095210;28;20212;-74
2022/09/08 12:13:55;;;;;;;4.32;3.75;;;18.10;99.90;;;;;;5095758;28;20716;-73
2022/09/08 12:16:39;;;;;;;4.28;3.88;;;18.20;99.90;;;;;;5095150;28;20252;-73
2022/09/08 12:19:29;;;;;;;4.13;3.70;;;18.20;99.90;;;;;;5100863;28;20652;-74
2022/09/08 12:22:20;;;;;;;6.32;4.70;;;18.20;99.90;;;;;;5113608;27;20202;-74
2022/09/08 12:25:01;;;;;;;5.30;4.07;;;18.10;99.90;;;;;;5109632;27;20709;-74
2022/09/08 12:27:44;;;;;;;4.82;3.90;;;18.00;99.90;;;;;;5104764;27;20193;-75
2022/09/08 12:30:16;;;;;;;4.82;4.00;;;17.90;99.90;;;;;;5105185;27;20205;-75
2022/09/08 12:33:29;;;;;;;5.15;4.65;;;18.10;99.90;;;;;;5103099;28;20211;-72
2022/09/08 12:35:58;;;;;;;9.95;6.47;;;18.10;99.90;;;;;;5101175;28;20201;-72
2022/09/08 12:38:49;;;;;;;11.80;8.88;;;18.20;99.90;;;;;;5111281;27;20221;-74
2022/09/08 12:41:33;;;;;;;5.38;4.28;;;18.10;99.90;;;;;;5103151;28;20623;-74
2022/09/08 12:44:11;;;;;;;5.00;3.95;;;18.10;99.90;;;;;;5108174;27;20200;-74
2022/09/08 12:46:53;;;;;;;5.82;4.28;;;17.90;99.90;;;;;;5101005;28;20307;-74
2022/09/08 12:49:56;;;;;;;5.30;4.40;;;17.80;99.90;;;;;;5110529;27;20197;-75
2022/09/08 12:52:38;;;;;;;5.25;4.32;;;17.90;99.90;;;;;;5117293;27;20208;-74
2022/09/08 12:55:19;;;;;;;6.50;4.25;;;17.80;99.90;;;;;;5103483;28;20204;-75
2022/09/08 12:57:54;;;;;;;5.10;4.60;;;17.90;99.90;;;;;;5102409;28;20221;-75
2022/09/08 13:00:26;;;;;;;5.15;4.65;;;18.00;99.90;;;;;;5109212;28;20249;-74
2022/09/08 13:03:26;;;;;;;4.93;4.43;;;17.90;99.90;;;;;;5110878;28;20288;-75
2022/09/08 13:06:25;;;;;;;6.03;5.35;;;17.80;99.90;;;;;;5097285;28;20632;-75
2022/09/08 13:08:58;;;;;;;5.43;4.90;;;17.70;99.90;;;;;;5104566;27;21114;-75
2022/09/08 13:11:42;;;;;;;6.15;5.50;;;17.80;99.90;;;;;;5110268;28;20577;-77
2022/09/08 13:14:12;;;;;;;7.10;5.70;;;17.70;99.90;;;;;;5104576;28;20683;-76
2022/09/08 13:16:51;;;;;;;6.68;5.97;;;17.50;99.90;;;;;;5112708;27;20659;-76
2022/09/08 13:19:27;;;;;;;9.93;6.45;;;17.60;99.90;;;;;;5107228;28;20196;-76
2022/09/08 13:22:12;;;;;;;10.25;6.45;;;17.50;99.90;;;;;;5112256;27;20205;-75
2022/09/08 13:24:54;;;;;;;9.82;6.80;;;17.40;99.90;;;;;;5104929;28;20202;-75
2022/09/08 13:27:38;;;;;;;7.90;5.97;;;17.30;99.90;;;;;;5105574;27;20196;-75
2022/09/08 13:30:14;;;;;;;7.45;5.82;;;17.30;99.90;;;;;;5102527;28;20193;-76
2022/09/08 13:33:12;;;;;;;11.65;6.13;;;17.30;99.90;;;;;;5102315;28;20212;-75